createdAt,value
2018-07-15T00:02:27.463Z,20.05
2018-07-15T00:04:56.227Z,20.07
2018-07-15T00:07:24.989Z,20.03
2018-07-15T00:09:53.782Z,20.08
2018-07-15T00:12:22.562Z,20.08
2018-07-15T00:14:51.327Z,20.03
2018-07-15T00:17:20.123Z,20.00
2018-07-15T00:19:49.012Z,19.96
2018-07-15T00:22:17.766Z,19.95
2018-07-15T00:24:46.575Z,19.90
2018-07-15T00:27:15.346Z,19.90
2018-07-15T00:29:44.106Z,19.87
2018-07-15T00:32:12.857Z,19.86
2018-07-15T00:34:41.666Z,19.83
2018-07-15T00:37:10.421Z,19.82
2018-07-15T00:39:39.241Z,19.85
2018-07-15T00:42:08.023Z,19.83
2018-07-15T00:44:36.795Z,19.83
2018-07-15T00:47:05.599Z,19.81
2018-07-15T00:49:34.357Z,19.82
2018-07-15T00:52:03.158Z,19.82
2018-07-15T00:54:31.952Z,19.81
2018-07-15T00:57:00.777Z,19.83
2018-07-15T00:59:30.216Z,19.81
2018-07-15T01:01:59.032Z,19.78
2018-07-15T01:04:27.825Z,19.74
2018-07-15T01:06:56.669Z,19.74
2018-07-15T01:09:25.465Z,19.77
2018-07-15T01:11:54.798Z,19.72
2018-07-15T01:14:23.566Z,19.72
2018-07-15T01:16:52.310Z,19.64
2018-07-15T01:19:21.081Z,19.65
2018-07-15T01:21:50.046Z,19.64
2018-07-15T01:24:18.805Z,19.78
2018-07-15T01:26:47.536Z,19.70
2018-07-15T01:29:16.294Z,19.67
2018-07-15T01:31:45.064Z,19.67
2018-07-15T01:34:13.821Z,19.63
2018-07-15T01:36:42.546Z,19.64
2018-07-15T01:39:11.768Z,19.61
2018-07-15T01:41:40.869Z,19.62
2018-07-15T01:44:09.650Z,19.60
2018-07-15T01:46:38.507Z,19.60
2018-07-15T01:49:07.279Z,19.59
2018-07-15T01:51:36.090Z,19.57
2018-07-15T01:54:04.927Z,19.54
2018-07-15T01:56:33.705Z,19.51
2018-07-15T01:59:02.594Z,19.54
2018-07-15T02:01:31.401Z,19.52
2018-07-15T02:04:00.182Z,19.49
2018-07-15T02:06:28.972Z,19.44
2018-07-15T02:08:57.802Z,19.45
2018-07-15T02:11:26.601Z,19.49
2018-07-15T02:13:55.418Z,19.47
2018-07-15T02:16:24.198Z,19.49
2018-07-15T02:18:53.126Z,19.47
2018-07-15T02:21:22.112Z,19.49
2018-07-15T02:23:50.888Z,19.48
2018-07-15T02:26:19.650Z,19.50
2018-07-15T02:28:48.473Z,19.55
2018-07-15T02:31:17.627Z,19.55
2018-07-15T02:33:46.358Z,19.54
2018-07-15T02:36:15.123Z,19.52
2018-07-15T02:38:43.872Z,19.53
2018-07-15T02:41:13.013Z,19.51
2018-07-15T02:43:41.809Z,19.49
2018-07-15T02:46:10.661Z,19.47
2018-07-15T02:48:39.458Z,19.47
2018-07-15T02:51:08.262Z,19.47
2018-07-15T02:53:37.034Z,19.49
2018-07-15T02:56:06.149Z,19.50
2018-07-15T02:58:34.911Z,19.51
2018-07-15T03:01:03.734Z,19.54
2018-07-15T03:03:32.494Z,19.50
2018-07-15T03:06:01.273Z,19.43
2018-07-15T03:08:30.049Z,19.42
2018-07-15T03:10:58.872Z,19.39
2018-07-15T03:13:27.723Z,19.38
2018-07-15T03:15:56.527Z,19.41
2018-07-15T03:18:25.379Z,19.36
2018-07-15T03:20:54.498Z,19.39
2018-07-15T03:23:24.325Z,19.45
2018-07-15T03:25:53.111Z,19.44
2018-07-15T03:28:21.884Z,19.46
2018-07-15T03:30:50.691Z,19.44
2018-07-15T03:33:19.449Z,19.45
2018-07-15T03:35:48.270Z,19.47
2018-07-15T03:38:17.055Z,19.47
2018-07-15T03:40:45.853Z,19.49
2018-07-15T03:43:14.687Z,19.51
2018-07-15T03:45:43.473Z,19.52
2018-07-15T03:48:12.260Z,19.56
2018-07-15T03:50:41.079Z,19.59
2018-07-15T03:53:09.982Z,19.64
2018-07-15T03:55:38.753Z,19.71
2018-07-15T03:58:07.540Z,19.70
2018-07-15T04:00:36.397Z,19.72
2018-07-15T04:03:05.335Z,19.73
2018-07-15T04:05:34.166Z,19.79
2018-07-15T04:08:03.025Z,19.90
2018-07-15T04:10:31.938Z,19.98
2018-07-15T04:13:00.729Z,20.00
2018-07-15T04:15:29.523Z,20.05
2018-07-15T04:18:06.278Z,20.14
2018-07-15T04:20:37.134Z,20.21
2018-07-15T04:23:06.615Z,20.26
2018-07-15T04:25:35.809Z,20.31
2018-07-15T04:28:05.112Z,20.35
2018-07-15T04:30:33.990Z,20.38
2018-07-15T04:33:02.776Z,20.41
2018-07-15T04:35:31.553Z,20.45
2018-07-15T04:38:00.415Z,20.53
2018-07-15T04:40:29.360Z,20.61
2018-07-15T04:42:58.204Z,20.68
2018-07-15T04:45:26.949Z,20.78
2018-07-15T04:47:55.761Z,20.81
2018-07-15T04:50:24.515Z,20.90
2018-07-15T04:52:53.282Z,21.14
2018-07-15T04:55:22.070Z,21.52
2018-07-15T04:57:51.101Z,22.40
2018-07-15T05:00:19.875Z,23.53
2018-07-15T05:02:48.632Z,24.41
2018-07-15T05:05:17.473Z,25.31
2018-07-15T05:07:46.237Z,25.62
2018-07-15T05:10:15.138Z,26.29
2018-07-15T05:12:43.951Z,26.63
2018-07-15T05:15:12.740Z,26.97
2018-07-15T05:17:41.501Z,27.13
2018-07-15T05:20:10.262Z,27.44
2018-07-15T05:22:39.099Z,27.38
2018-07-15T05:25:07.837Z,27.44
2018-07-15T05:27:36.625Z,27.37
2018-07-15T05:30:07.110Z,27.48
2018-07-15T05:32:35.942Z,27.70
2018-07-15T05:35:05.021Z,27.47
2018-07-15T05:37:33.902Z,27.07
2018-07-15T05:40:02.728Z,26.94
2018-07-15T05:42:31.550Z,26.95
2018-07-15T05:45:00.350Z,27.06
2018-07-15T05:47:29.179Z,26.85
2018-07-15T05:49:57.956Z,26.93
2018-07-15T05:52:26.735Z,27.08
2018-07-15T05:54:55.538Z,27.08
2018-07-15T05:57:24.307Z,26.51
2018-07-15T05:59:53.048Z,26.07
2018-07-15T06:02:22.026Z,25.97
2018-07-15T06:04:50.844Z,25.46
2018-07-15T06:07:19.650Z,25.19
2018-07-15T06:09:48.462Z,24.90
2018-07-15T06:12:17.260Z,24.82
2018-07-15T06:14:45.985Z,24.70
2018-07-15T06:17:14.866Z,24.62
2018-07-15T06:19:43.736Z,24.39
2018-07-15T06:22:12.594Z,24.18
2018-07-15T06:24:41.368Z,24.15
2018-07-15T06:27:10.195Z,24.12
2018-07-15T06:29:39.339Z,24.10
2018-07-15T06:32:08.171Z,23.96
2018-07-15T06:34:36.976Z,23.97
2018-07-15T06:37:06.410Z,23.97
2018-07-15T06:39:35.242Z,24.03
2018-07-15T06:42:04.094Z,23.92
2018-07-15T06:44:32.879Z,23.74
2018-07-15T06:47:01.700Z,23.53
2018-07-15T06:49:30.600Z,23.50
2018-07-15T06:52:00.171Z,23.50
2018-07-15T06:54:29.116Z,23.57
2018-07-15T06:56:58.045Z,23.38
2018-07-15T06:59:26.826Z,23.40
2018-07-15T07:01:55.587Z,23.53
2018-07-15T07:04:24.441Z,23.59
2018-07-15T07:06:53.269Z,23.68
2018-07-15T07:09:22.028Z,23.68
2018-07-15T07:11:50.886Z,23.72
2018-07-15T07:14:20.176Z,23.72
2018-07-15T07:16:49.074Z,23.78
2018-07-15T07:19:17.908Z,23.79
2018-07-15T07:21:46.751Z,23.86
2018-07-15T07:24:15.629Z,23.95
2018-07-15T07:26:44.446Z,24.02
2018-07-15T07:29:13.209Z,23.96
2018-07-15T07:31:42.002Z,23.99
2018-07-15T07:34:10.798Z,24.09
2018-07-15T07:36:39.594Z,24.10
2018-07-15T07:39:08.746Z,24.11
2018-07-15T07:41:38.041Z,24.07
2018-07-15T07:44:06.802Z,24.04
2018-07-15T07:46:35.598Z,24.07
2018-07-15T07:49:04.425Z,24.14
2018-07-15T07:51:33.238Z,24.17
2018-07-15T07:54:02.014Z,24.13
2018-07-15T07:56:30.798Z,24.16
2018-07-15T07:58:59.607Z,24.28
2018-07-15T08:01:28.359Z,24.25
2018-07-15T08:03:57.110Z,24.35
2018-07-15T08:06:26.210Z,24.44
2018-07-15T08:08:58.513Z,24.57
2018-07-15T08:11:27.293Z,24.64
2018-07-15T08:13:56.114Z,24.66
2018-07-15T08:16:24.892Z,24.68
2018-07-15T08:18:53.688Z,24.81
2018-07-15T08:21:22.894Z,24.90
2018-07-15T08:23:51.673Z,24.82
2018-07-15T08:26:20.446Z,24.82
2018-07-15T08:28:49.209Z,24.93
2018-07-15T08:31:33.573Z,24.95
2018-07-15T08:34:03.045Z,24.95
2018-07-15T08:36:31.799Z,25.00
2018-07-15T08:39:01.026Z,25.04
2018-07-15T08:41:30.430Z,25.08
2018-07-15T08:43:59.186Z,25.18
2018-07-15T08:46:28.075Z,25.14
2018-07-15T08:48:56.905Z,25.12
2018-07-15T08:51:25.703Z,25.08
2018-07-15T08:53:54.501Z,25.27
2018-07-15T08:56:23.322Z,25.31
2018-07-15T08:58:52.182Z,25.25
2018-07-15T09:01:20.985Z,25.11
2018-07-15T09:03:50.010Z,25.06
2018-07-15T09:06:18.842Z,24.97
2018-07-15T09:08:47.601Z,25.05
2018-07-15T09:11:16.391Z,25.09
2018-07-15T09:13:45.202Z,25.26
2018-07-15T09:16:14.020Z,25.41
2018-07-15T09:18:42.846Z,25.56
2018-07-15T09:21:11.653Z,25.59
2018-07-15T09:23:40.574Z,25.61
2018-07-15T09:26:09.397Z,25.63
2018-07-15T09:28:38.163Z,25.73
2018-07-15T09:31:07.067Z,25.67
2018-07-15T09:33:36.086Z,25.49
2018-07-15T09:36:04.939Z,25.62
2018-07-15T09:38:33.732Z,25.75
2018-07-15T09:41:02.505Z,25.80
2018-07-15T09:43:32.291Z,25.82
2018-07-15T09:46:01.057Z,25.69
2018-07-15T09:48:29.870Z,25.58
2018-07-15T09:50:58.623Z,25.63
2018-07-15T09:53:27.812Z,25.74
2018-07-15T09:55:56.599Z,25.90
2018-07-15T09:58:25.858Z,26.02
2018-07-15T10:00:56.135Z,25.95
2018-07-15T10:03:26.432Z,25.92
2018-07-15T10:05:55.209Z,26.07
2018-07-15T10:08:24.042Z,26.36
2018-07-15T10:10:53.262Z,26.40
2018-07-15T10:13:22.481Z,26.36
2018-07-15T10:15:51.272Z,26.37
2018-07-15T10:18:20.073Z,26.58
2018-07-15T10:20:48.910Z,26.85
2018-07-15T10:23:17.682Z,27.00
2018-07-15T10:25:46.461Z,27.16
2018-07-15T10:28:15.240Z,27.28
2018-07-15T10:30:44.140Z,27.30
2018-07-15T10:33:13.333Z,27.43
2018-07-15T10:35:42.317Z,27.45
2018-07-15T10:38:11.083Z,27.26
2018-07-15T10:40:39.870Z,26.91
2018-07-15T10:43:08.946Z,26.63
2018-07-15T10:45:37.728Z,26.63
2018-07-15T10:48:06.868Z,26.72
2018-07-15T10:50:35.685Z,26.82
2018-07-15T10:53:04.487Z,27.02
2018-07-15T10:55:33.297Z,27.11
2018-07-15T10:58:02.107Z,27.02
2018-07-15T11:00:38.375Z,27.02
2018-07-15T11:03:07.203Z,26.89
2018-07-15T11:05:36.192Z,27.00
2018-07-15T11:08:05.038Z,26.95
2018-07-15T11:10:33.821Z,27.08
2018-07-15T11:13:02.663Z,27.25
2018-07-15T11:15:31.509Z,27.14
2018-07-15T11:18:00.331Z,27.08
2018-07-15T11:20:29.161Z,27.04
2018-07-15T11:22:57.972Z,27.09
2018-07-15T11:25:26.771Z,27.02
2018-07-15T11:27:55.973Z,26.83
2018-07-15T11:30:24.846Z,26.71
2018-07-15T11:32:53.597Z,26.77
2018-07-15T11:35:22.389Z,26.81
2018-07-15T11:37:51.155Z,26.97
2018-07-15T11:40:19.960Z,27.16
2018-07-15T11:42:48.774Z,27.22
2018-07-15T11:45:17.990Z,27.23
2018-07-15T11:47:46.757Z,27.18
2018-07-15T11:50:15.600Z,27.26
2018-07-15T11:52:44.356Z,27.28
2018-07-15T11:55:13.131Z,27.41
2018-07-15T11:57:42.304Z,27.50
2018-07-15T12:00:11.096Z,27.53
2018-07-15T12:02:40.070Z,27.52
2018-07-15T12:05:09.064Z,27.58
2018-07-15T12:07:37.825Z,27.68
2018-07-15T12:10:07.101Z,27.89
2018-07-15T12:12:36.257Z,28.00
2018-07-15T12:15:05.462Z,27.67
2018-07-15T12:17:34.224Z,27.64
2018-07-15T12:20:03.043Z,27.48
2018-07-15T12:22:31.823Z,27.71
2018-07-15T12:25:00.586Z,27.73
2018-07-15T12:27:29.330Z,27.67
2018-07-15T12:29:58.116Z,27.72
2018-07-15T12:32:26.900Z,27.92
2018-07-15T12:34:55.699Z,28.08
2018-07-15T12:37:24.455Z,28.20
2018-07-15T12:39:53.273Z,28.28
2018-07-15T12:42:22.162Z,28.30
2018-07-15T12:44:51.150Z,28.48
2018-07-15T12:47:42.775Z,28.53
2018-07-15T12:50:11.621Z,28.62
2018-07-15T12:52:40.419Z,28.55
2018-07-15T12:55:09.233Z,28.42
2018-07-15T12:57:38.387Z,28.31
2018-07-15T13:00:07.304Z,28.29
2018-07-15T13:02:36.083Z,28.35
2018-07-15T13:05:05.240Z,28.36
2018-07-15T13:07:34.845Z,28.41
2018-07-15T13:10:03.725Z,28.56
2018-07-15T13:12:32.668Z,28.29
2018-07-15T13:15:01.534Z,28.20
2018-07-15T13:17:30.557Z,28.16
2018-07-15T13:19:59.391Z,28.08
2018-07-15T13:22:28.183Z,28.23
2018-07-15T13:24:57.170Z,28.47
2018-07-15T13:27:25.969Z,28.62
2018-07-15T13:29:54.861Z,28.27
2018-07-15T13:32:23.656Z,28.15
2018-07-15T13:34:52.532Z,28.15
2018-07-15T13:37:21.314Z,27.92
2018-07-15T13:39:50.191Z,27.66
2018-07-15T13:42:19.054Z,27.43
2018-07-15T13:44:47.824Z,27.33
2018-07-15T13:47:16.819Z,26.96
2018-07-15T13:49:45.704Z,26.05
2018-07-15T13:52:14.847Z,25.94
2018-07-15T13:54:43.678Z,25.85
2018-07-15T13:57:12.534Z,25.78
2018-07-15T13:59:41.323Z,25.72
2018-07-15T14:02:10.132Z,25.61
2018-07-15T14:04:38.993Z,25.47
2018-07-15T14:07:07.895Z,25.37
2018-07-15T14:09:37.062Z,25.53
2018-07-15T14:12:06.090Z,25.57
2018-07-15T14:14:34.910Z,25.80
2018-07-15T14:17:03.834Z,25.95
2018-07-15T14:19:32.610Z,26.05
2018-07-15T14:22:01.549Z,26.20
2018-07-15T14:24:30.340Z,26.27
2018-07-15T14:26:59.217Z,26.33
2018-07-15T14:29:28.004Z,26.31
2018-07-15T14:31:56.786Z,26.57
2018-07-15T14:34:25.578Z,26.77
2018-07-15T14:36:54.351Z,26.92
2018-07-15T14:39:29.238Z,27.06
2018-07-15T14:41:58.035Z,27.13
2018-07-15T14:44:26.875Z,27.19
2018-07-15T14:46:55.709Z,27.31
2018-07-15T14:49:24.555Z,27.25
2018-07-15T14:51:53.374Z,27.09
2018-07-15T14:54:22.174Z,27.11
2018-07-15T14:56:50.991Z,27.25
2018-07-15T14:59:21.983Z,27.49
2018-07-15T15:01:52.724Z,27.74
2018-07-15T15:04:21.950Z,27.84
2018-07-15T15:06:51.658Z,28.02
2018-07-15T15:09:20.493Z,28.32
2018-07-15T15:11:49.332Z,28.39
2018-07-15T15:14:18.181Z,28.45
2018-07-15T15:16:47.410Z,28.39
2018-07-15T15:19:16.246Z,28.28
2018-07-15T15:21:45.089Z,28.14
2018-07-15T15:24:13.917Z,27.87
2018-07-15T15:26:42.665Z,27.55
2018-07-15T15:29:11.448Z,26.64
2018-07-15T15:31:40.311Z,26.48
2018-07-15T15:34:09.153Z,26.45
2018-07-15T15:36:37.975Z,26.35
2018-07-15T15:39:06.948Z,26.23
2018-07-15T15:41:35.807Z,26.18
2018-07-15T15:44:04.682Z,26.19
2018-07-15T15:46:33.485Z,26.19
2018-07-15T15:49:02.684Z,26.19
2018-07-15T15:51:31.555Z,26.07
2018-07-15T15:54:00.338Z,26.17
2018-07-15T15:56:29.163Z,26.29
2018-07-15T15:58:58.510Z,26.35
2018-07-15T16:01:27.399Z,26.31
2018-07-15T16:03:57.823Z,26.03
2018-07-15T16:06:27.028Z,25.90
2018-07-15T16:08:55.951Z,25.89
2018-07-15T16:11:24.803Z,25.97
2018-07-15T16:13:53.627Z,25.99
2018-07-15T16:16:22.572Z,26.01
2018-07-15T16:18:51.367Z,26.15
2018-07-15T16:21:20.245Z,26.29
2018-07-15T16:23:49.463Z,26.31
2018-07-15T16:26:18.326Z,26.41
2018-07-15T16:28:47.193Z,26.53
2018-07-15T16:31:16.105Z,26.51
2018-07-15T16:33:44.975Z,26.44
2018-07-15T16:36:13.814Z,26.51
2018-07-15T16:38:42.677Z,26.53
2018-07-15T16:41:11.643Z,26.57
2018-07-15T16:43:40.472Z,26.70
2018-07-15T16:46:09.239Z,26.73
2018-07-15T16:48:38.039Z,26.78
2018-07-15T16:51:06.927Z,26.98
2018-07-15T16:53:35.797Z,27.04
2018-07-15T16:56:05.010Z,26.94
2018-07-15T16:58:34.079Z,26.83
2018-07-15T17:01:03.504Z,26.80
2018-07-15T17:03:32.632Z,26.61
2018-07-15T17:06:01.429Z,26.40
2018-07-15T17:08:30.310Z,26.26
2018-07-15T17:10:59.139Z,26.19
2018-07-15T17:13:27.968Z,26.16
2018-07-15T17:15:56.827Z,26.10
2018-07-15T17:18:25.653Z,26.06
2018-07-15T17:20:54.604Z,25.89
2018-07-15T17:23:28.883Z,25.73
2018-07-15T17:25:57.696Z,25.55
2018-07-15T17:28:26.683Z,25.43
2018-07-15T17:30:58.807Z,25.36
2018-07-15T17:33:28.400Z,25.31
2018-07-15T17:35:57.480Z,25.21
2018-07-15T17:38:26.308Z,25.16
2018-07-15T17:40:55.148Z,25.05
2018-07-15T17:43:24.086Z,24.95
2018-07-15T17:45:52.969Z,24.85
2018-07-15T17:48:22.461Z,24.80
2018-07-15T17:50:52.021Z,24.79
2018-07-15T17:53:20.898Z,24.72
2018-07-15T17:55:49.677Z,24.64
2018-07-15T17:58:18.579Z,24.58
2018-07-15T18:00:47.775Z,24.52
2018-07-15T18:03:16.597Z,24.45
2018-07-15T18:05:45.662Z,24.41
2018-07-15T18:08:14.462Z,24.38
2018-07-15T18:10:43.407Z,24.38
2018-07-15T18:13:12.433Z,24.36
2018-07-15T18:15:41.330Z,24.30
2018-07-15T18:18:10.414Z,24.29
2018-07-15T18:20:39.724Z,24.27
2018-07-15T18:23:10.940Z,24.26
2018-07-15T18:25:39.887Z,24.27
2018-07-15T18:28:08.788Z,24.22
2018-07-15T18:30:37.594Z,24.18
2018-07-15T18:33:06.557Z,24.16
2018-07-15T18:35:35.402Z,24.14
2018-07-15T18:38:04.300Z,24.10
2018-07-15T18:40:33.089Z,24.04
2018-07-15T18:43:03.128Z,23.99
2018-07-15T18:45:32.293Z,23.87
2018-07-15T18:48:01.230Z,23.81
2018-07-15T18:50:30.246Z,23.80
2018-07-15T18:52:59.102Z,23.63
2018-07-15T18:55:27.925Z,23.53
2018-07-15T18:57:56.817Z,23.47
2018-07-15T19:00:25.569Z,23.34
2018-07-15T19:02:54.387Z,23.21
2018-07-15T19:05:23.187Z,23.23
2018-07-15T19:07:53.204Z,23.23
2018-07-15T19:10:23.689Z,23.22
2018-07-15T19:12:54.633Z,23.18
2018-07-15T19:15:25.863Z,23.14
2018-07-15T19:17:56.496Z,23.17
2018-07-15T19:20:37.689Z,23.13
2018-07-15T19:23:14.921Z,23.17
2018-07-15T19:25:44.222Z,23.14
2018-07-15T19:28:13.780Z,23.08
2018-07-15T19:30:42.759Z,23.08
2018-07-15T19:33:11.603Z,23.08
2018-07-15T19:35:40.774Z,23.11
2018-07-15T19:38:09.583Z,23.15
2018-07-15T19:40:38.458Z,23.17
2018-07-15T19:43:07.400Z,23.18
2018-07-15T19:45:36.177Z,23.21
2018-07-15T19:48:04.963Z,23.23
2018-07-15T19:50:33.748Z,23.32
2018-07-15T19:53:02.530Z,23.36
2018-07-15T19:55:31.382Z,23.35
2018-07-15T19:58:00.253Z,23.35
2018-07-15T20:00:29.032Z,23.37
2018-07-15T20:02:57.790Z,23.41
2018-07-15T20:05:26.625Z,23.44
2018-07-15T20:07:55.473Z,23.46
2018-07-15T20:10:24.361Z,23.47
2018-07-15T20:12:53.270Z,23.41
2018-07-15T20:15:22.479Z,23.39
2018-07-15T20:17:51.318Z,23.32
2018-07-15T20:20:21.146Z,23.27
2018-07-15T20:22:49.873Z,23.28
2018-07-15T20:25:18.613Z,23.19
2018-07-15T20:27:47.448Z,23.14
2018-07-15T20:30:16.543Z,23.12
2018-07-15T20:32:45.379Z,23.12
2018-07-15T20:35:14.197Z,23.10
2018-07-15T20:37:42.990Z,23.10
2018-07-15T20:40:11.821Z,23.08
2018-07-15T20:42:40.600Z,23.11
2018-07-15T20:45:09.495Z,23.12
2018-07-15T20:47:38.253Z,23.17
2018-07-15T20:50:07.063Z,23.24
2018-07-15T20:52:35.959Z,23.18
2018-07-15T20:55:04.743Z,23.11
2018-07-15T20:57:33.915Z,23.13
2018-07-15T21:00:04.647Z,23.14
2018-07-15T21:02:33.476Z,23.17
2018-07-15T21:05:02.255Z,23.13
2018-07-15T21:07:31.081Z,23.04
2018-07-15T21:09:59.869Z,23.04
2018-07-15T21:12:28.658Z,23.02
2018-07-15T21:14:57.495Z,23.04
2018-07-15T21:17:26.265Z,23.09
2018-07-15T21:19:55.064Z,23.11
2018-07-15T21:22:23.802Z,23.07
2018-07-15T21:24:52.690Z,23.03
2018-07-15T21:27:21.517Z,23.02
2018-07-15T21:29:50.770Z,22.97
2018-07-15T21:32:19.612Z,22.94
2018-07-15T21:34:49.017Z,22.91
2018-07-15T21:37:17.802Z,22.90
2018-07-15T21:39:46.598Z,22.75
2018-07-15T21:42:15.435Z,22.78
2018-07-15T21:44:44.274Z,22.79
2018-07-15T21:47:13.349Z,22.78
2018-07-15T21:49:42.228Z,22.82
2018-07-15T21:52:11.350Z,22.86
2018-07-15T21:54:40.171Z,22.88
2018-07-15T21:57:09.046Z,22.88
2018-07-15T21:59:37.828Z,22.91
2018-07-15T22:02:06.820Z,22.89
2018-07-15T22:04:35.648Z,22.87
2018-07-15T22:07:15.587Z,22.81
2018-07-15T22:09:55.993Z,22.77
2018-07-15T22:12:25.166Z,22.76
2018-07-15T22:14:54.327Z,22.70
2018-07-15T22:17:23.961Z,22.65
2018-07-15T22:19:52.791Z,22.62
2018-07-15T22:22:21.591Z,22.70
2018-07-15T22:24:50.359Z,22.71
2018-07-15T22:27:19.394Z,22.73
2018-07-15T22:29:48.185Z,22.70
2018-07-15T22:32:16.953Z,22.63
2018-07-15T22:34:45.667Z,22.55
2018-07-15T22:37:14.421Z,22.58
2018-07-15T22:39:43.433Z,22.52
2018-07-15T22:42:12.503Z,22.49
2018-07-15T22:44:41.249Z,22.43
2018-07-15T22:47:10.069Z,22.39
2018-07-15T22:49:38.869Z,22.36
2018-07-15T22:52:07.763Z,22.26
2018-07-15T22:54:36.585Z,22.28
2018-07-15T22:57:05.727Z,22.33
2018-07-15T22:59:34.524Z,22.33
2018-07-15T23:02:03.379Z,22.28
2018-07-15T23:05:49.092Z,22.22
2018-07-15T23:08:17.968Z,22.11
2018-07-15T23:10:47.128Z,22.11
2018-07-15T23:13:16.386Z,22.15
2018-07-15T23:15:46.155Z,22.13
2018-07-15T23:18:14.923Z,22.10
2018-07-15T23:20:44.491Z,22.08
2018-07-15T23:23:13.785Z,22.09
2018-07-15T23:25:42.569Z,22.04
2018-07-15T23:28:12.399Z,22.06
2018-07-15T23:30:41.833Z,22.11
2018-07-15T23:33:11.451Z,22.13
2018-07-15T23:35:40.241Z,22.11
2018-07-15T23:38:08.998Z,22.08
2018-07-15T23:40:37.855Z,22.10
2018-07-15T23:43:06.744Z,22.08
2018-07-15T23:45:36.262Z,22.05
2018-07-15T23:48:05.118Z,21.98
2018-07-15T23:50:33.957Z,21.96
2018-07-15T23:53:02.777Z,21.92
2018-07-15T23:55:31.567Z,21.86
2018-07-15T23:58:00.362Z,21.85
